sensor_id;sensor_type;location;lat;lon;timestamp;P1;durP1;ratioP1;P2;durP2;ratioP2
26742;SDS011;14341;51.256;22.478;2023-04-06T00:00:26;14.30;;;9.50;;
26742;SDS011;14341;51.256;22.478;2023-04-06T00:03:30;13.80;;;8.98;;
26742;SDS011;14341;51.256;22.478;2023-04-06T00:06:34;18.25;;;9.63;;
26742;SDS011;14341;51.256;22.478;2023-04-06T00:09:37;14.75;;;9.52;;
26742;SDS011;14341;51.256;22.478;2023-04-06T00:12:41;14.27;;;9.52;;
26742;SDS011;14341;51.256;22.478;2023-04-06T00:15:45;14.95;;;9.27;;
26742;SDS011;14341;51.256;22.478;2023-04-06T00:18:49;20.10;;;9.65;;
26742;SDS011;14341;51.256;22.478;2023-04-06T00:21:52;14.32;;;9.27;;
26742;SDS011;14341;51.256;22.478;2023-04-06T00:24:56;15.07;;;9.35;;
26742;SDS011;14341;51.256;22.478;2023-04-06T00:27:59;17.83;;;9.27;;
26742;SDS011;14341;51.256;22.478;2023-04-06T00:31:04;15.98;;;10.10;;
26742;SDS011;14341;51.256;22.478;2023-04-06T00:34:07;17.95;;;10.05;;
26742;SDS011;14341;51.256;22.478;2023-04-06T00:37:11;17.15;;;10.18;;
26742;SDS011;14341;51.256;22.478;2023-04-06T00:40:15;13.90;;;8.98;;
26742;SDS011;14341;51.256;22.478;2023-04-06T00:43:19;17.08;;;8.88;;
26742;SDS011;14341;51.256;22.478;2023-04-06T00:46:24;14.88;;;9.27;;
26742;SDS011;14341;51.256;22.478;2023-04-06T00:49:27;15.10;;;9.30;;
26742;SDS011;14341;51.256;22.478;2023-04-06T00:52:31;14.40;;;9.15;;
26742;SDS011;14341;51.256;22.478;2023-04-06T00:55:34;18.42;;;9.90;;
26742;SDS011;14341;51.256;22.478;2023-04-06T00:58:38;17.15;;;9.45;;
26742;SDS011;14341;51.256;22.478;2023-04-06T01:01:44;18.85;;;10.38;;
26742;SDS011;14341;51.256;22.478;2023-04-06T01:05:04;17.25;;;9.13;;
26742;SDS011;14341;51.256;22.478;2023-04-06T01:08:19;14.57;;;9.15;;
26742;SDS011;14341;51.256;22.478;2023-04-06T01:11:26;12.93;;;8.88;;
26742;SDS011;14341;51.256;22.478;2023-04-06T01:14:30;18.25;;;10.27;;
26742;SDS011;14341;51.256;22.478;2023-04-06T01:17:36;15.55;;;9.95;;
26742;SDS011;14341;51.256;22.478;2023-04-06T01:20:45;15.63;;;9.82;;
26742;SDS011;14341;51.256;22.478;2023-04-06T01:23:51;21.58;;;9.60;;
26742;SDS011;14341;51.256;22.478;2023-04-06T01:27:01;18.92;;;9.30;;
26742;SDS011;14341;51.256;22.478;2023-04-06T01:30:23;13.52;;;8.75;;
26742;SDS011;14341;51.256;22.478;2023-04-06T01:33:32;14.75;;;8.57;;
26742;SDS011;14341;51.256;22.478;2023-04-06T01:36:40;16.20;;;9.40;;
26742;SDS011;14341;51.256;22.478;2023-04-06T01:40:04;15.85;;;8.48;;
26742;SDS011;14341;51.256;22.478;2023-04-06T01:43:16;15.27;;;8.80;;
26742;SDS011;14341;51.256;22.478;2023-04-06T01:46:33;14.77;;;8.98;;
26742;SDS011;14341;51.256;22.478;2023-04-06T01:49:39;13.77;;;8.63;;
26742;SDS011;14341;51.256;22.478;2023-04-06T01:52:43;13.10;;;8.20;;
26742;SDS011;14341;51.256;22.478;2023-04-06T01:55:48;12.27;;;8.18;;
26742;SDS011;14341;51.256;22.478;2023-04-06T01:58:59;15.65;;;8.15;;
26742;SDS011;14341;51.256;22.478;2023-04-06T02:05:28;10.57;;;7.82;;
26742;SDS011;14341;51.256;22.478;2023-04-06T02:08:35;13.80;;;8.32;;
26742;SDS011;14341;51.256;22.478;2023-04-06T02:11:40;14.35;;;8.00;;
26742;SDS011;14341;51.256;22.478;2023-04-06T02:14:47;14.68;;;8.20;;
26742;SDS011;14341;51.256;22.478;2023-04-06T02:17:50;11.73;;;7.95;;
26742;SDS011;14341;51.256;22.478;2023-04-06T02:20:54;12.32;;;8.10;;
26742;SDS011;14341;51.256;22.478;2023-04-06T02:27:13;14.13;;;8.00;;
26742;SDS011;14341;51.256;22.478;2023-04-06T02:30:20;12.30;;;7.97;;
26742;SDS011;14341;51.256;22.478;2023-04-06T02:33:24;13.75;;;7.63;;
26742;SDS011;14341;51.256;22.478;2023-04-06T02:36:28;10.07;;;6.78;;
26742;SDS011;14341;51.256;22.478;2023-04-06T02:39:32;10.30;;;7.30;;
26742;SDS011;14341;51.256;22.478;2023-04-06T02:42:40;12.07;;;7.57;;
26742;SDS011;14341;51.256;22.478;2023-04-06T02:49:06;11.23;;;7.03;;
26742;SDS011;14341;51.256;22.478;2023-04-06T02:52:10;12.50;;;7.50;;
26742;SDS011;14341;51.256;22.478;2023-04-06T02:55:13;10.88;;;7.47;;
26742;SDS011;14341;51.256;22.478;2023-04-06T02:58:19;11.68;;;7.47;;
26742;SDS011;14341;51.256;22.478;2023-04-06T03:01:27;7.87;;;5.43;;
26742;SDS011;14341;51.256;22.478;2023-04-06T03:04:34;9.68;;;6.93;;
26742;SDS011;14341;51.256;22.478;2023-04-06T03:07:40;12.77;;;6.93;;
26742;SDS011;14341;51.256;22.478;2023-04-06T03:10:51;12.18;;;6.95;;
26742;SDS011;14341;51.256;22.478;2023-04-06T03:13:56;10.05;;;6.85;;
26742;SDS011;14341;51.256;22.478;2023-04-06T03:17:00;13.27;;;7.45;;
26742;SDS011;14341;51.256;22.478;2023-04-06T03:20:04;12.65;;;7.15;;
26742;SDS011;14341;51.256;22.478;2023-04-06T03:23:09;12.60;;;7.65;;
26742;SDS011;14341;51.256;22.478;2023-04-06T03:26:15;9.68;;;6.55;;
26742;SDS011;14341;51.256;22.478;2023-04-06T03:29:20;13.13;;;7.70;;
26742;SDS011;14341;51.256;22.478;2023-04-06T03:32:24;12.35;;;7.47;;
26742;SDS011;14341;51.256;22.478;2023-04-06T03:35:28;9.30;;;6.63;;
26742;SDS011;14341;51.256;22.478;2023-04-06T03:38:31;13.70;;;7.15;;
26742;SDS011;14341;51.256;22.478;2023-04-06T03:41:38;11.93;;;7.28;;
26742;SDS011;14341;51.256;22.478;2023-04-06T03:45:06;13.93;;;7.35;;
26742;SDS011;14341;51.256;22.478;2023-04-06T03:48:14;12.25;;;7.43;;
26742;SDS011;14341;51.256;22.478;2023-04-06T03:51:17;12.85;;;7.90;;
26742;SDS011;14341;51.256;22.478;2023-04-06T03:54:22;10.82;;;7.00;;
26742;SDS011;14341;51.256;22.478;2023-04-06T03:57:25;16.30;;;8.48;;
26742;SDS011;14341;51.256;22.478;2023-04-06T04:00:32;11.63;;;7.10;;
26742;SDS011;14341;51.256;22.478;2023-04-06T04:03:35;13.75;;;7.97;;
26742;SDS011;14341;51.256;22.478;2023-04-06T04:06:39;14.63;;;8.20;;
26742;SDS011;14341;51.256;22.478;2023-04-06T04:09:42;15.52;;;8.13;;
26742;SDS011;14341;51.256;22.478;2023-04-06T04:12:46;12.48;;;9.35;;
26742;SDS011;14341;51.256;22.478;2023-04-06T04:15:51;12.00;;;7.75;;
26742;SDS011;14341;51.256;22.478;2023-04-06T04:18:54;13.35;;;7.95;;
26742;SDS011;14341;51.256;22.478;2023-04-06T04:21:59;13.52;;;10.48;;
26742;SDS011;14341;51.256;22.478;2023-04-06T04:25:08;12.77;;;8.90;;
26742;SDS011;14341;51.256;22.478;2023-04-06T04:28:17;16.25;;;9.93;;
26742;SDS011;14341;51.256;22.478;2023-04-06T04:31:22;14.48;;;9.75;;
26742;SDS011;14341;51.256;22.478;2023-04-06T04:34:31;13.57;;;9.50;;
26742;SDS011;14341;51.256;22.478;2023-04-06T04:37:35;12.48;;;9.15;;
26742;SDS011;14341;51.256;22.478;2023-04-06T04:40:38;13.07;;;9.60;;
26742;SDS011;14341;51.256;22.478;2023-04-06T04:43:44;16.23;;;8.90;;
26742;SDS011;14341;51.256;22.478;2023-04-06T04:46:53;16.33;;;9.30;;
26742;SDS011;14341;51.256;22.478;2023-04-06T04:50:05;17.75;;;9.80;;
26742;SDS011;14341;51.256;22.478;2023-04-06T04:53:13;15.20;;;9.50;;
26742;SDS011;14341;51.256;22.478;2023-04-06T04:56:17;15.85;;;10.32;;
26742;SDS011;14341;51.256;22.478;2023-04-06T04:59:24;30.55;;;15.50;;
26742;SDS011;14341;51.256;22.478;2023-04-06T05:02:35;22.33;;;13.55;;
26742;SDS011;14341;51.256;22.478;2023-04-06T05:05:49;18.25;;;11.35;;
26742;SDS011;14341;51.256;22.478;2023-04-06T05:08:53;16.00;;;10.05;;
26742;SDS011;14341;51.256;22.478;2023-04-06T05:11:57;51.00;;;36.47;;
26742;SDS011;14341;51.256;22.478;2023-04-06T05:15:05;17.23;;;10.00;;
26742;SDS011;14341;51.256;22.478;2023-04-06T05:18:10;21.95;;;14.95;;
26742;SDS011;14341;51.256;22.478;2023-04-06T05:21:14;16.88;;;10.73;;
26742;SDS011;14341;51.256;22.478;2023-04-06T05:24:28;29.02;;;12.05;;
26742;SDS011;14341;51.256;22.478;2023-04-06T05:27:32;21.17;;;11.38;;
26742;SDS011;14341;51.256;22.478;2023-04-06T05:30:41;21.80;;;11.07;;
26742;SDS011;14341;51.256;22.478;2023-04-06T05:33:48;21.63;;;12.23;;
26742;SDS011;14341;51.256;22.478;2023-04-06T05:37:01;25.02;;;15.05;;
26742;SDS011;14341;51.256;22.478;2023-04-06T05:40:05;22.10;;;12.95;;
26742;SDS011;14341;51.256;22.478;2023-04-06T05:43:10;24.80;;;12.75;;
26742;SDS011;14341;51.256;22.478;2023-04-06T05:46:17;19.40;;;12.70;;
26742;SDS011;14341;51.256;22.478;2023-04-06T05:49:23;19.33;;;12.60;;
26742;SDS011;14341;51.256;22.478;2023-04-06T05:52:27;24.05;;;13.15;;
26742;SDS011;14341;51.256;22.478;2023-04-06T05:55:30;17.85;;;12.18;;
26742;SDS011;14341;51.256;22.478;2023-04-06T05:58:44;19.25;;;12.05;;
26742;SDS011;14341;51.256;22.478;2023-04-06T06:01:51;17.92;;;12.13;;
26742;SDS011;14341;51.256;22.478;2023-04-06T06:04:56;22.70;;;15.30;;
26742;SDS011;14341;51.256;22.478;2023-04-06T06:08:01;22.15;;;12.98;;
26742;SDS011;14341;51.256;22.478;2023-04-06T06:11:05;21.05;;;13.80;;
26742;SDS011;14341;51.256;22.478;2023-04-06T06:14:08;19.45;;;11.95;;
26742;SDS011;14341;51.256;22.478;2023-04-06T06:17:14;22.83;;;15.60;;
26742;SDS011;14341;51.256;22.478;2023-04-06T06:20:21;25.95;;;14.65;;
26742;SDS011;14341;51.256;22.478;2023-04-06T06:23:25;32.33;;;19.40;;
26742;SDS011;14341;51.256;22.478;2023-04-06T06:26:29;24.35;;;14.63;;
26742;SDS011;14341;51.256;22.478;2023-04-06T06:29:34;27.63;;;14.20;;
26742;SDS011;14341;51.256;22.478;2023-04-06T06:32:37;29.00;;;18.02;;
26742;SDS011;14341;51.256;22.478;2023-04-06T06:35:44;33.95;;;16.27;;
26742;SDS011;14341;51.256;22.478;2023-04-06T06:38:47;44.45;;;18.92;;
26742;SDS011;14341;51.256;22.478;2023-04-06T06:41:53;28.45;;;14.63;;
26742;SDS011;14341;51.256;22.478;2023-04-06T06:45:16;32.83;;;15.77;;
26742;SDS011;14341;51.256;22.478;2023-04-06T06:48:20;36.95;;;16.58;;
26742;SDS011;14341;51.256;22.478;2023-04-06T06:51:25;45.65;;;20.38;;
26742;SDS011;14341;51.256;22.478;2023-04-06T06:54:29;35.58;;;18.98;;
26742;SDS011;14341;51.256;22.478;2023-04-06T06:57:32;46.67;;;19.60;;
26742;SDS011;14341;51.256;22.478;2023-04-06T07:00:36;34.58;;;17.23;;
26742;SDS011;14341;51.256;22.478;2023-04-06T07:03:40;70.35;;;28.48;;
26742;SDS011;14341;51.256;22.478;2023-04-06T07:06:45;25.27;;;16.67;;
26742;SDS011;14341;51.256;22.478;2023-04-06T07:09:49;32.63;;;19.33;;
26742;SDS011;14341;51.256;22.478;2023-04-06T07:12:52;28.50;;;14.98;;
26742;SDS011;14341;51.256;22.478;2023-04-06T07:15:56;38.58;;;18.08;;
26742;SDS011;14341;51.256;22.478;2023-04-06T07:19:00;39.60;;;19.85;;
26742;SDS011;14341;51.256;22.478;2023-04-06T07:22:05;34.92;;;22.00;;
26742;SDS011;14341;51.256;22.478;2023-04-06T07:25:09;36.78;;;18.42;;
26742;SDS011;14341;51.256;22.478;2023-04-06T07:28:15;35.97;;;18.27;;
26742;SDS011;14341;51.256;22.478;2023-04-06T07:31:18;32.45;;;16.75;;
26742;SDS011;14341;51.256;22.478;2023-04-06T07:34:24;35.20;;;17.63;;
26742;SDS011;14341;51.256;22.478;2023-04-06T07:37:30;32.75;;;17.60;;
26742;SDS011;14341;51.256;22.478;2023-04-06T07:40:34;31.83;;;18.60;;
26742;SDS011;14341;51.256;22.478;2023-04-06T07:43:37;28.33;;;18.73;;
26742;SDS011;14341;51.256;22.478;2023-04-06T07:46:42;28.13;;;16.40;;
26742;SDS011;14341;51.256;22.478;2023-04-06T07:49:46;29.05;;;17.55;;
26742;SDS011;14341;51.256;22.478;2023-04-06T07:52:52;51.55;;;28.88;;
26742;SDS011;14341;51.256;22.478;2023-04-06T07:55:57;30.80;;;18.65;;
26742;SDS011;14341;51.256;22.478;2023-04-06T07:59:00;29.77;;;17.88;;
26742;SDS011;14341;51.256;22.478;2023-04-06T08:02:04;32.85;;;17.77;;
26742;SDS011;14341;51.256;22.478;2023-04-06T08:05:08;29.10;;;18.60;;
26742;SDS011;14341;51.256;22.478;2023-04-06T08:08:13;29.20;;;17.50;;
26742;SDS011;14341;51.256;22.478;2023-04-06T08:11:20;25.30;;;16.83;;
26742;SDS011;14341;51.256;22.478;2023-04-06T08:14:24;27.40;;;17.40;;
26742;SDS011;14341;51.256;22.478;2023-04-06T08:17:28;26.77;;;17.00;;
26742;SDS011;14341;51.256;22.478;2023-04-06T08:20:32;29.02;;;18.20;;
26742;SDS011;14341;51.256;22.478;2023-04-06T08:23:37;29.55;;;17.10;;
26742;SDS011;14341;51.256;22.478;2023-04-06T08:26:41;28.35;;;17.75;;
26742;SDS011;14341;51.256;22.478;2023-04-06T08:29:44;28.55;;;16.23;;
26742;SDS011;14341;51.256;22.478;2023-04-06T08:32:48;29.33;;;18.13;;
26742;SDS011;14341;51.256;22.478;2023-04-06T08:35:52;68.82;;;31.88;;
26742;SDS011;14341;51.256;22.478;2023-04-06T08:38:57;31.27;;;18.30;;
26742;SDS011;14341;51.256;22.478;2023-04-06T08:42:01;33.53;;;19.73;;
26742;SDS011;14341;51.256;22.478;2023-04-06T08:45:05;46.22;;;20.52;;
26742;SDS011;14341;51.256;22.478;2023-04-06T08:48:11;26.17;;;16.67;;
26742;SDS011;14341;51.256;22.478;2023-04-06T08:51:15;24.05;;;17.23;;
26742;SDS011;14341;51.256;22.478;2023-04-06T08:54:20;39.70;;;20.88;;
26742;SDS011;14341;51.256;22.478;2023-04-06T08:57:23;33.05;;;20.83;;
26742;SDS011;14341;51.256;22.478;2023-04-06T09:00:28;30.27;;;17.60;;
26742;SDS011;14341;51.256;22.478;2023-04-06T09:03:32;28.50;;;17.45;;
26742;SDS011;14341;51.256;22.478;2023-04-06T09:06:40;25.77;;;17.05;;
26742;SDS011;14341;51.256;22.478;2023-04-06T09:09:45;25.05;;;15.80;;
26742;SDS011;14341;51.256;22.478;2023-04-06T09:12:50;27.40;;;18.88;;
26742;SDS011;14341;51.256;22.478;2023-04-06T09:16:00;32.63;;;19.33;;
26742;SDS011;14341;51.256;22.478;2023-04-06T09:19:04;27.85;;;16.75;;
26742;SDS011;14341;51.256;22.478;2023-04-06T09:22:08;27.60;;;17.20;;
26742;SDS011;14341;51.256;22.478;2023-04-06T09:25:19;27.90;;;17.23;;
26742;SDS011;14341;51.256;22.478;2023-04-06T09:28:24;25.77;;;16.73;;
26742;SDS011;14341;51.256;22.478;2023-04-06T09:31:28;29.40;;;17.10;;
26742;SDS011;14341;51.256;22.478;2023-04-06T09:34:34;25.85;;;16.77;;
26742;SDS011;14341;51.256;22.478;2023-04-06T09:37:38;29.92;;;18.88;;
26742;SDS011;14341;51.256;22.478;2023-04-06T09:40:49;26.88;;;18.63;;
26742;SDS011;14341;51.256;22.478;2023-04-06T09:44:03;23.42;;;16.65;;
26742;SDS011;14341;51.256;22.478;2023-04-06T09:47:08;26.63;;;17.50;;
26742;SDS011;14341;51.256;22.478;2023-04-06T09:50:26;24.35;;;17.40;;
26742;SDS011;14341;51.256;22.478;2023-04-06T09:55:07;25.10;;;17.63;;
26742;SDS011;14341;51.256;22.478;2023-04-06T09:58:13;28.58;;;17.65;;
26742;SDS011;14341;51.256;22.478;2023-04-06T10:01:20;27.30;;;18.45;;
26742;SDS011;14341;51.256;22.478;2023-04-06T10:04:29;32.60;;;21.65;;
26742;SDS011;14341;51.256;22.478;2023-04-06T10:17:32;38.55;;;26.42;;
26742;SDS011;14341;51.256;22.478;2023-04-06T10:20:38;26.88;;;19.10;;
26742;SDS011;14341;51.256;22.478;2023-04-06T10:23:47;30.10;;;19.35;;
26742;SDS011;14341;51.256;22.478;2023-04-06T10:26:58;31.98;;;19.77;;
26742;SDS011;14341;51.256;22.478;2023-04-06T10:30:05;29.02;;;20.48;;
26742;SDS011;14341;51.256;22.478;2023-04-06T10:33:14;26.95;;;18.35;;
26742;SDS011;14341;51.256;22.478;2023-04-06T10:36:21;31.90;;;19.00;;
26742;SDS011;14341;51.256;22.478;2023-04-06T10:39:26;32.63;;;19.38;;
26742;SDS011;14341;51.256;22.478;2023-04-06T10:42:36;25.80;;;17.77;;
26742;SDS011;14341;51.256;22.478;2023-04-06T10:45:40;33.97;;;20.05;;
26742;SDS011;14341;51.256;22.478;2023-04-06T10:48:46;28.02;;;19.52;;
26742;SDS011;14341;51.256;22.478;2023-04-06T10:51:51;45.65;;;21.33;;
26742;SDS011;14341;51.256;22.478;2023-04-06T10:54:56;30.70;;;20.75;;
26742;SDS011;14341;51.256;22.478;2023-04-06T10:58:00;28.50;;;20.02;;
26742;SDS011;14341;51.256;22.478;2023-04-06T11:01:04;29.77;;;19.00;;
26742;SDS011;14341;51.256;22.478;2023-04-06T11:04:09;26.65;;;18.73;;
26742;SDS011;14341;51.256;22.478;2023-04-06T11:07:22;66.50;;;25.60;;
26742;SDS011;14341;51.256;22.478;2023-04-06T11:10:26;29.33;;;19.92;;
26742;SDS011;14341;51.256;22.478;2023-04-06T11:13:36;25.45;;;17.63;;
26742;SDS011;14341;51.256;22.478;2023-04-06T11:16:45;31.00;;;19.85;;
26742;SDS011;14341;51.256;22.478;2023-04-06T11:19:51;90.97;;;32.70;;
26742;SDS011;14341;51.256;22.478;2023-04-06T11:22:54;33.30;;;20.75;;
26742;SDS011;14341;51.256;22.478;2023-04-06T11:26:00;33.00;;;21.13;;
26742;SDS011;14341;51.256;22.478;2023-04-06T11:29:04;28.27;;;17.83;;
26742;SDS011;14341;51.256;22.478;2023-04-06T11:32:07;30.48;;;20.05;;
26742;SDS011;14341;51.256;22.478;2023-04-06T11:35:14;28.20;;;19.63;;
26742;SDS011;14341;51.256;22.478;2023-04-06T11:38:22;28.90;;;18.48;;
26742;SDS011;14341;51.256;22.478;2023-04-06T11:41:26;42.15;;;20.80;;
26742;SDS011;14341;51.256;22.478;2023-04-06T11:44:32;149.32;;;39.28;;
26742;SDS011;14341;51.256;22.478;2023-04-06T11:47:36;28.45;;;18.02;;
26742;SDS011;14341;51.256;22.478;2023-04-06T11:50:43;40.85;;;20.95;;
26742;SDS011;14341;51.256;22.478;2023-04-06T11:53:49;27.10;;;18.13;;
26742;SDS011;14341;51.256;22.478;2023-04-06T11:56:52;26.85;;;18.20;;
26742;SDS011;14341;51.256;22.478;2023-04-06T11:59:56;28.55;;;18.10;;
26742;SDS011;14341;51.256;22.478;2023-04-06T12:02:59;28.70;;;17.65;;
26742;SDS011;14341;51.256;22.478;2023-04-06T12:06:05;29.20;;;19.05;;
26742;SDS011;14341;51.256;22.478;2023-04-06T12:09:09;31.20;;;19.35;;
26742;SDS011;14341;51.256;22.478;2023-04-06T12:12:13;31.52;;;19.80;;
26742;SDS011;14341;51.256;22.478;2023-04-06T12:15:17;29.45;;;18.70;;
26742;SDS011;14341;51.256;22.478;2023-04-06T12:18:20;28.15;;;19.83;;
26742;SDS011;14341;51.256;22.478;2023-04-06T12:21:26;29.63;;;19.13;;
26742;SDS011;14341;51.256;22.478;2023-04-06T12:24:29;29.70;;;18.98;;
26742;SDS011;14341;51.256;22.478;2023-04-06T12:27:33;33.67;;;19.77;;
26742;SDS011;14341;51.256;22.478;2023-04-06T12:30:37;30.05;;;17.73;;
26742;SDS011;14341;51.256;22.478;2023-04-06T12:33:42;28.00;;;17.95;;
26742;SDS011;14341;51.256;22.478;2023-04-06T12:41:03;28.85;;;18.95;;
26742;SDS011;14341;51.256;22.478;2023-04-06T12:44:07;25.40;;;17.30;;
26742;SDS011;14341;51.256;22.478;2023-04-06T12:47:10;27.23;;;18.13;;
26742;SDS011;14341;51.256;22.478;2023-04-06T12:50:14;29.15;;;19.05;;
26742;SDS011;14341;51.256;22.478;2023-04-06T12:53:19;32.58;;;19.75;;
26742;SDS011;14341;51.256;22.478;2023-04-06T12:56:22;31.60;;;19.38;;
26742;SDS011;14341;51.256;22.478;2023-04-06T12:59:27;31.00;;;19.92;;
26742;SDS011;14341;51.256;22.478;2023-04-06T13:02:36;32.60;;;19.52;;
26742;SDS011;14341;51.256;22.478;2023-04-06T13:05:43;39.65;;;23.88;;
26742;SDS011;14341;51.256;22.478;2023-04-06T13:08:48;40.65;;;23.05;;
26742;SDS011;14341;51.256;22.478;2023-04-06T13:11:52;46.05;;;24.90;;
26742;SDS011;14341;51.256;22.478;2023-04-06T13:14:56;31.95;;;20.45;;
26742;SDS011;14341;51.256;22.478;2023-04-06T13:18:00;30.48;;;18.90;;
26742;SDS011;14341;51.256;22.478;2023-04-06T13:21:04;32.33;;;20.48;;
26742;SDS011;14341;51.256;22.478;2023-04-06T13:24:09;32.05;;;20.05;;
26742;SDS011;14341;51.256;22.478;2023-04-06T13:27:17;29.80;;;19.83;;
26742;SDS011;14341;51.256;22.478;2023-04-06T13:30:21;27.77;;;16.63;;
26742;SDS011;14341;51.256;22.478;2023-04-06T13:33:25;30.85;;;18.65;;
26742;SDS011;14341;51.256;22.478;2023-04-06T13:36:28;53.50;;;28.75;;
26742;SDS011;14341;51.256;22.478;2023-04-06T13:39:34;29.30;;;20.10;;
26742;SDS011;14341;51.256;22.478;2023-04-06T13:42:38;32.42;;;20.48;;
26742;SDS011;14341;51.256;22.478;2023-04-06T13:45:42;36.53;;;21.52;;
26742;SDS011;14341;51.256;22.478;2023-04-06T13:48:52;32.90;;;21.20;;
26742;SDS011;14341;51.256;22.478;2023-04-06T13:51:56;33.28;;;21.05;;
26742;SDS011;14341;51.256;22.478;2023-04-06T13:55:01;41.00;;;24.27;;
26742;SDS011;14341;51.256;22.478;2023-04-06T13:58:05;41.05;;;24.90;;
26742;SDS011;14341;51.256;22.478;2023-04-06T14:01:09;37.90;;;24.15;;
26742;SDS011;14341;51.256;22.478;2023-04-06T14:04:13;40.33;;;25.25;;
26742;SDS011;14341;51.256;22.478;2023-04-06T14:07:16;40.15;;;25.80;;
26742;SDS011;14341;51.256;22.478;2023-04-06T14:10:23;38.17;;;24.38;;
26742;SDS011;14341;51.256;22.478;2023-04-06T14:13:29;34.72;;;21.75;;
26742;SDS011;14341;51.256;22.478;2023-04-06T14:16:32;34.80;;;21.17;;
26742;SDS011;14341;51.256;22.478;2023-04-06T14:19:36;36.80;;;23.50;;
26742;SDS011;14341;51.256;22.478;2023-04-06T14:22:40;34.88;;;22.00;;
26742;SDS011;14341;51.256;22.478;2023-04-06T14:25:45;40.92;;;23.83;;
26742;SDS011;14341;51.256;22.478;2023-04-06T14:28:49;36.70;;;23.25;;
26742;SDS011;14341;51.256;22.478;2023-04-06T14:31:53;36.13;;;22.25;;
26742;SDS011;14341;51.256;22.478;2023-04-06T14:35:01;36.95;;;22.45;;
26742;SDS011;14341;51.256;22.478;2023-04-06T14:38:07;38.05;;;24.27;;
26742;SDS011;14341;51.256;22.478;2023-04-06T14:41:15;39.75;;;23.77;;
26742;SDS011;14341;51.256;22.478;2023-04-06T14:44:20;43.17;;;25.58;;
26742;SDS011;14341;51.256;22.478;2023-04-06T14:47:24;47.78;;;27.35;;
26742;SDS011;14341;51.256;22.478;2023-04-06T14:50:27;64.15;;;32.55;;
26742;SDS011;14341;51.256;22.478;2023-04-06T14:53:31;43.00;;;26.90;;
26742;SDS011;14341;51.256;22.478;2023-04-06T14:56:40;42.03;;;26.35;;
26742;SDS011;14341;51.256;22.478;2023-04-06T14:59:44;93.77;;;39.47;;
26742;SDS011;14341;51.256;22.478;2023-04-06T15:02:47;41.05;;;24.83;;
26742;SDS011;14341;51.256;22.478;2023-04-06T15:05:51;55.72;;;30.20;;
26742;SDS011;14341;51.256;22.478;2023-04-06T15:08:55;70.38;;;33.70;;
26742;SDS011;14341;51.256;22.478;2023-04-06T15:12:08;53.83;;;31.92;;
26742;SDS011;14341;51.256;22.478;2023-04-06T15:15:19;54.67;;;31.13;;
26742;SDS011;14341;51.256;22.478;2023-04-06T15:18:22;64.03;;;36.35;;
26742;SDS011;14341;51.256;22.478;2023-04-06T15:21:25;46.28;;;28.95;;
26742;SDS011;14341;51.256;22.478;2023-04-06T15:24:30;51.35;;;30.92;;
26742;SDS011;14341;51.256;22.478;2023-04-06T15:27:35;52.47;;;31.48;;
26742;SDS011;14341;51.256;22.478;2023-04-06T15:30:39;49.72;;;30.45;;
26742;SDS011;14341;51.256;22.478;2023-04-06T15:33:45;53.60;;;33.30;;
26742;SDS011;14341;51.256;22.478;2023-04-06T15:36:52;55.60;;;34.22;;
26742;SDS011;14341;51.256;22.478;2023-04-06T15:39:56;68.55;;;41.70;;
26742;SDS011;14341;51.256;22.478;2023-04-06T15:43:15;70.78;;;35.38;;
26742;SDS011;14341;51.256;22.478;2023-04-06T15:46:22;59.85;;;31.67;;
26742;SDS011;14341;51.256;22.478;2023-04-06T15:49:39;50.95;;;30.70;;
26742;SDS011;14341;51.256;22.478;2023-04-06T15:52:48;54.23;;;33.03;;
26742;SDS011;14341;51.256;22.478;2023-04-06T15:55:54;45.38;;;27.83;;
26742;SDS011;14341;51.256;22.478;2023-04-06T15:59:02;48.08;;;28.27;;
26742;SDS011;14341;51.256;22.478;2023-04-06T16:02:05;45.45;;;27.40;;
26742;SDS011;14341;51.256;22.478;2023-04-06T16:05:10;50.45;;;29.25;;
26742;SDS011;14341;51.256;22.478;2023-04-06T16:08:14;50.03;;;28.42;;
26742;SDS011;14341;51.256;22.478;2023-04-06T16:11:19;46.35;;;27.67;;
26742;SDS011;14341;51.256;22.478;2023-04-06T16:14:24;55.20;;;31.02;;
26742;SDS011;14341;51.256;22.478;2023-04-06T16:17:27;69.47;;;36.20;;
26742;SDS011;14341;51.256;22.478;2023-04-06T16:20:31;52.50;;;31.17;;
26742;SDS011;14341;51.256;22.478;2023-04-06T16:23:36;47.40;;;29.38;;
26742;SDS011;14341;51.256;22.478;2023-04-06T16:26:42;49.03;;;29.60;;
26742;SDS011;14341;51.256;22.478;2023-04-06T16:29:48;46.13;;;29.58;;
26742;SDS011;14341;51.256;22.478;2023-04-06T16:32:52;53.97;;;31.60;;
26742;SDS011;14341;51.256;22.478;2023-04-06T16:35:55;62.42;;;32.25;;
26742;SDS011;14341;51.256;22.478;2023-04-06T16:38:59;54.05;;;30.80;;
26742;SDS011;14341;51.256;22.478;2023-04-06T16:42:03;45.50;;;29.73;;
26742;SDS011;14341;51.256;22.478;2023-04-06T16:45:08;50.08;;;30.35;;
26742;SDS011;14341;51.256;22.478;2023-04-06T16:48:15;52.30;;;28.48;;
26742;SDS011;14341;51.256;22.478;2023-04-06T16:51:19;51.30;;;29.15;;
26742;SDS011;14341;51.256;22.478;2023-04-06T16:54:22;66.05;;;37.97;;
26742;SDS011;14341;51.256;22.478;2023-04-06T16:57:25;58.95;;;34.78;;
26742;SDS011;14341;51.256;22.478;2023-04-06T17:00:31;57.25;;;34.28;;
26742;SDS011;14341;51.256;22.478;2023-04-06T17:03:34;58.80;;;35.85;;
26742;SDS011;14341;51.256;22.478;2023-04-06T17:06:38;50.90;;;31.33;;
26742;SDS011;14341;51.256;22.478;2023-04-06T17:09:42;63.78;;;35.90;;
26742;SDS011;14341;51.256;22.478;2023-04-06T17:12:46;56.85;;;33.45;;
26742;SDS011;14341;51.256;22.478;2023-04-06T17:15:51;65.15;;;37.15;;
26742;SDS011;14341;51.256;22.478;2023-04-06T17:18:55;70.22;;;40.25;;
26742;SDS011;14341;51.256;22.478;2023-04-06T17:21:59;67.43;;;39.47;;
26742;SDS011;14341;51.256;22.478;2023-04-06T17:25:02;62.60;;;36.97;;
26742;SDS011;14341;51.256;22.478;2023-04-06T17:28:07;72.85;;;40.15;;
26742;SDS011;14341;51.256;22.478;2023-04-06T17:31:12;65.78;;;37.40;;
26742;SDS011;14341;51.256;22.478;2023-04-06T17:34:16;61.78;;;36.35;;
26742;SDS011;14341;51.256;22.478;2023-04-06T17:37:19;71.82;;;40.47;;
26742;SDS011;14341;51.256;22.478;2023-04-06T17:40:23;67.85;;;39.40;;
26742;SDS011;14341;51.256;22.478;2023-04-06T17:43:26;65.25;;;37.22;;
26742;SDS011;14341;51.256;22.478;2023-04-06T17:46:31;65.65;;;36.55;;
26742;SDS011;14341;51.256;22.478;2023-04-06T17:49:34;67.47;;;37.00;;
26742;SDS011;14341;51.256;22.478;2023-04-06T17:52:38;68.35;;;37.20;;
26742;SDS011;14341;51.256;22.478;2023-04-06T17:55:42;70.95;;;37.83;;
26742;SDS011;14341;51.256;22.478;2023-04-06T17:58:46;71.32;;;38.60;;
26742;SDS011;14341;51.256;22.478;2023-04-06T18:01:50;75.32;;;40.83;;
26742;SDS011;14341;51.256;22.478;2023-04-06T18:04:54;78.10;;;40.28;;
26742;SDS011;14341;51.256;22.478;2023-04-06T18:07:57;79.28;;;42.67;;
26742;SDS011;14341;51.256;22.478;2023-04-06T18:11:01;85.28;;;45.65;;
26742;SDS011;14341;51.256;22.478;2023-04-06T18:14:05;83.03;;;43.10;;
26742;SDS011;14341;51.256;22.478;2023-04-06T18:17:10;77.90;;;41.63;;